createdAt,value
2018-06-10T00:00:34.013Z,20.57
2018-06-10T00:01:34.030Z,20.61
2018-06-10T00:02:34.002Z,20.64
2018-06-10T00:03:33.991Z,20.66
2018-06-10T00:04:34.000Z,20.70
2018-06-10T00:05:33.970Z,20.69
2018-06-10T00:06:33.943Z,20.73
2018-06-10T00:07:33.951Z,20.61
2018-06-10T00:08:33.965Z,20.64
2018-06-10T00:09:33.918Z,20.62
2018-06-10T00:10:33.917Z,20.66
2018-06-10T00:11:33.920Z,20.70
2018-06-10T00:12:33.997Z,20.70
2018-06-10T00:13:33.883Z,20.73
2018-06-10T00:14:33.959Z,20.70
2018-06-10T00:15:33.865Z,20.69
2018-06-10T00:16:33.849Z,20.70
2018-06-10T00:17:33.837Z,20.73
2018-06-10T00:18:33.823Z,20.87
2018-06-10T00:19:33.934Z,20.92
2018-06-10T00:20:33.866Z,20.85
2018-06-10T00:21:33.808Z,20.82
2018-06-10T00:22:33.795Z,20.79
2018-06-10T00:23:33.792Z,20.74
2018-06-10T00:24:33.807Z,20.67
2018-06-10T00:25:33.782Z,20.62
2018-06-10T00:26:33.750Z,20.61
2018-06-10T00:27:33.784Z,20.61
2018-06-10T00:28:33.849Z,20.69
2018-06-10T00:29:33.749Z,20.59
2018-06-10T00:30:33.798Z,20.59
2018-06-10T00:31:33.736Z,20.54
2018-06-10T00:32:33.692Z,20.52
2018-06-10T00:33:33.797Z,20.51
2018-06-10T00:34:33.654Z,20.52
2018-06-10T00:35:33.640Z,20.51
2018-06-10T00:36:35.966Z,20.43
2018-06-10T00:37:33.639Z,20.50
2018-06-10T00:38:33.653Z,20.48
2018-06-10T00:39:34.513Z,20.47
2018-06-10T00:40:33.629Z,20.39
2018-06-10T00:41:33.600Z,20.41
2018-06-10T00:42:33.601Z,20.48
2018-06-10T00:43:33.621Z,20.39
2018-06-10T00:44:33.556Z,20.33
2018-06-10T00:45:33.538Z,20.31
2018-06-10T00:46:33.541Z,20.24
2018-06-10T00:47:33.538Z,20.24
2018-06-10T00:48:33.533Z,20.28
2018-06-10T00:49:33.525Z,20.20
2018-06-10T00:50:33.474Z,20.13
2018-06-10T00:51:33.481Z,20.16
2018-06-10T00:52:33.496Z,20.17
2018-06-10T00:53:33.485Z,20.06
2018-06-10T00:54:33.449Z,20.03
2018-06-10T00:55:33.461Z,20.08
2018-06-10T00:56:33.457Z,20.02
2018-06-10T00:57:33.416Z,20.01
2018-06-10T00:58:33.464Z,19.95
2018-06-10T00:59:33.419Z,19.96
2018-06-10T01:00:33.375Z,19.99
2018-06-10T01:01:33.360Z,19.92
2018-06-10T01:02:33.366Z,19.88
2018-06-10T01:03:33.345Z,19.83
2018-06-10T01:04:33.355Z,19.78
2018-06-10T01:05:33.334Z,19.77
2018-06-10T01:06:33.312Z,19.84
2018-06-10T01:07:33.313Z,19.80
2018-06-10T01:08:33.311Z,19.80
2018-06-10T01:09:55.329Z,19.74
2018-06-10T01:10:33.319Z,19.78
2018-06-10T01:11:33.290Z,19.78
2018-06-10T01:12:33.253Z,19.74
2018-06-10T01:13:33.251Z,19.76
2018-06-10T01:14:33.243Z,19.66
2018-06-10T01:15:33.230Z,19.65
2018-06-10T01:16:33.201Z,19.74
2018-06-10T01:17:33.179Z,19.68
2018-06-10T01:18:33.204Z,19.61
2018-06-10T01:19:33.191Z,19.61
2018-06-10T01:20:33.178Z,19.61
2018-06-10T01:21:33.146Z,19.54
2018-06-10T01:22:33.151Z,19.47
2018-06-10T01:23:33.169Z,19.41
2018-06-10T01:24:33.159Z,19.41
2018-06-10T01:25:33.098Z,19.37
2018-06-10T01:26:33.099Z,19.40
2018-06-10T01:27:33.086Z,19.39
2018-06-10T01:28:33.073Z,19.37
2018-06-10T01:29:33.093Z,19.36
2018-06-10T01:30:33.051Z,19.37
2018-06-10T01:31:33.032Z,19.33
2018-06-10T01:32:33.068Z,19.44
2018-06-10T01:33:33.039Z,19.39
2018-06-10T01:34:33.018Z,19.31
2018-06-10T01:35:33.037Z,19.23
2018-06-10T01:36:32.981Z,19.32
2018-06-10T01:37:32.984Z,19.40
2018-06-10T01:38:32.974Z,19.26
2018-06-10T01:39:32.956Z,19.25
2018-06-10T01:40:32.957Z,19.26
2018-06-10T01:41:32.972Z,19.37
2018-06-10T01:42:32.920Z,19.41
2018-06-10T01:43:32.908Z,19.37
2018-06-10T01:44:32.913Z,19.33
2018-06-10T01:45:32.923Z,19.43
2018-06-10T01:46:32.879Z,19.39
2018-06-10T01:47:32.878Z,19.37
2018-06-10T01:48:32.869Z,19.36
2018-06-10T01:49:32.849Z,19.37
2018-06-10T01:50:32.875Z,19.43
2018-06-10T01:51:32.809Z,19.48
2018-06-10T01:52:32.812Z,19.43
2018-06-10T01:53:32.816Z,19.37
2018-06-10T01:54:32.789Z,19.40
2018-06-10T01:55:53.794Z,19.44
2018-06-10T01:56:32.754Z,19.37
2018-06-10T01:57:32.767Z,19.37
2018-06-10T01:58:32.735Z,19.36
2018-06-10T01:59:32.720Z,19.36
2018-06-10T02:00:32.707Z,19.37
2018-06-10T02:01:32.700Z,19.32
2018-06-10T02:02:32.715Z,19.28
2018-06-10T02:03:32.694Z,19.40
2018-06-10T02:04:32.665Z,19.40
2018-06-10T02:05:32.655Z,19.33
2018-06-10T02:06:32.666Z,19.25
2018-06-10T02:07:32.644Z,19.28
2018-06-10T02:08:32.616Z,19.33
2018-06-10T02:09:32.602Z,19.21
2018-06-10T02:10:32.596Z,19.13
2018-06-10T02:11:32.608Z,19.21
2018-06-10T02:12:32.585Z,19.18
2018-06-10T02:13:32.573Z,19.23
2018-06-10T02:14:32.559Z,19.18
2018-06-10T02:15:32.538Z,19.25
2018-06-10T02:16:32.528Z,19.18
2018-06-10T02:17:32.547Z,19.18
2018-06-10T02:18:32.520Z,19.11
2018-06-10T02:19:32.493Z,19.07
2018-06-10T02:20:32.486Z,19.04
2018-06-10T02:21:32.474Z,19.08
2018-06-10T02:22:32.457Z,19.07
2018-06-10T02:23:32.470Z,19.04
2018-06-10T02:24:32.450Z,19.02
2018-06-10T02:25:32.445Z,19.11
2018-06-10T02:26:32.416Z,19.06
2018-06-10T02:27:32.423Z,19.06
2018-06-10T02:28:32.392Z,19.08
2018-06-10T02:29:32.384Z,19.07
2018-06-10T02:30:32.375Z,19.07
2018-06-10T02:31:32.363Z,19.07
2018-06-10T02:32:32.367Z,18.98
2018-06-10T02:33:32.342Z,19.07
2018-06-10T02:34:32.326Z,19.00
2018-06-10T02:35:32.315Z,19.00
2018-06-10T02:36:32.305Z,18.94
2018-06-10T02:37:32.318Z,18.85
2018-06-10T02:38:32.280Z,18.84
2018-06-10T02:39:32.294Z,18.88
2018-06-10T02:40:32.273Z,18.87
2018-06-10T02:41:32.251Z,18.87
2018-06-10T02:42:32.232Z,18.88
2018-06-10T02:43:32.268Z,18.88
2018-06-10T02:44:32.246Z,18.94
2018-06-10T02:45:32.209Z,18.99
2018-06-10T02:46:32.214Z,18.88
2018-06-10T02:47:32.179Z,18.95
2018-06-10T02:48:32.179Z,18.88
2018-06-10T02:49:32.161Z,18.85
2018-06-10T02:50:32.179Z,18.78
2018-06-10T02:51:32.156Z,18.90
2018-06-10T02:52:32.125Z,18.81
2018-06-10T02:53:32.119Z,18.92
2018-06-10T02:54:32.134Z,18.91
2018-06-10T02:55:32.117Z,18.94
2018-06-10T02:56:32.104Z,18.91
2018-06-10T02:57:32.084Z,18.98
2018-06-10T02:58:32.094Z,18.98
2018-06-10T02:59:32.071Z,18.94
2018-06-10T03:00:32.037Z,18.99
2018-06-10T03:01:32.032Z,18.95
2018-06-10T03:02:32.009Z,19.08
2018-06-10T03:03:32.008Z,19.07
2018-06-10T03:04:32.047Z,19.04
2018-06-10T03:05:31.980Z,19.02
2018-06-10T03:06:32.007Z,19.04
2018-06-10T03:07:31.952Z,18.94
2018-06-10T03:08:31.987Z,18.98
2018-06-10T03:09:31.971Z,18.91
2018-06-10T03:10:31.966Z,18.90
2018-06-10T03:11:31.918Z,18.91
2018-06-10T03:12:31.944Z,18.92
2018-06-10T03:13:31.891Z,18.94
2018-06-10T03:14:31.873Z,18.99
2018-06-10T03:15:31.893Z,18.92
2018-06-10T03:16:31.866Z,18.98
2018-06-10T03:17:31.841Z,18.91
2018-06-10T03:18:31.834Z,18.91
2018-06-10T03:19:31.844Z,18.88
2018-06-10T03:20:31.823Z,18.91
2018-06-10T03:21:31.814Z,18.99
2018-06-10T03:22:31.799Z,18.98
2018-06-10T03:23:31.797Z,19.11
2018-06-10T03:24:31.770Z,19.19
2018-06-10T03:25:31.780Z,19.08
2018-06-10T03:26:31.797Z,19.10
2018-06-10T03:27:31.773Z,19.06
2018-06-10T03:28:31.720Z,19.07
2018-06-10T03:29:31.708Z,19.07
2018-06-10T03:30:31.712Z,19.10
2018-06-10T03:31:31.696Z,18.99
2018-06-10T03:32:31.675Z,18.91
2018-06-10T03:33:31.688Z,18.92
2018-06-10T03:34:31.683Z,18.88
2018-06-10T03:35:31.655Z,18.90
2018-06-10T03:36:31.645Z,18.85
2018-06-10T03:37:31.618Z,18.85
2018-06-10T03:38:31.608Z,18.85
2018-06-10T03:39:31.603Z,18.81
2018-06-10T03:40:31.629Z,18.85
2018-06-10T03:41:31.588Z,18.87
2018-06-10T03:42:31.583Z,18.85
2018-06-10T03:43:31.584Z,18.87
2018-06-10T03:44:31.534Z,18.78
2018-06-10T03:45:31.557Z,18.81
2018-06-10T03:46:31.520Z,18.84
2018-06-10T03:47:31.508Z,18.87
2018-06-10T03:48:31.488Z,18.85
2018-06-10T03:49:31.516Z,18.90
2018-06-10T03:50:31.527Z,18.88
2018-06-10T03:51:31.520Z,18.84
2018-06-10T03:52:31.462Z,18.81
2018-06-10T03:53:31.481Z,18.84
2018-06-10T03:54:31.466Z,18.87
2018-06-10T03:55:31.437Z,18.84
2018-06-10T03:56:31.401Z,18.84
2018-06-10T03:57:31.475Z,18.85
2018-06-10T03:58:31.391Z,18.82
2018-06-10T03:59:31.392Z,18.87
2018-06-10T04:00:31.368Z,18.92
2018-06-10T04:01:31.369Z,18.84
2018-06-10T04:02:31.358Z,18.84
2018-06-10T04:03:31.350Z,18.87
2018-06-10T04:04:31.332Z,18.82
2018-06-10T04:05:31.367Z,18.81
2018-06-10T04:06:31.303Z,18.80
2018-06-10T04:07:31.275Z,18.92
2018-06-10T04:08:31.269Z,18.99
2018-06-10T04:09:31.283Z,18.99
2018-06-10T04:10:31.245Z,19.00
2018-06-10T04:11:31.278Z,18.94
2018-06-10T04:12:31.238Z,18.94
2018-06-10T04:13:31.230Z,19.00
2018-06-10T04:14:31.212Z,18.98
2018-06-10T04:15:31.212Z,19.00
2018-06-10T04:16:31.221Z,18.99
2018-06-10T04:17:31.168Z,18.98
2018-06-10T04:18:31.165Z,18.94
2018-06-10T04:19:31.154Z,18.98
2018-06-10T04:20:31.170Z,18.94
2018-06-10T04:21:31.156Z,19.07
2018-06-10T04:22:52.167Z,19.07
2018-06-10T04:23:31.120Z,19.11
2018-06-10T04:24:31.097Z,19.23
2018-06-10T04:25:31.103Z,19.13
2018-06-10T04:26:31.079Z,19.08
2018-06-10T04:27:52.091Z,19.13
2018-06-10T04:28:31.058Z,19.06
2018-06-10T04:29:31.074Z,19.22
2018-06-10T04:30:31.026Z,19.10
2018-06-10T04:31:31.029Z,19.07
2018-06-10T04:32:31.039Z,19.07
2018-06-10T04:33:30.988Z,19.16
2018-06-10T04:34:30.980Z,19.06
2018-06-10T04:35:30.981Z,19.08
2018-06-10T04:36:30.954Z,19.16
2018-06-10T04:37:30.969Z,19.19
2018-06-10T04:38:30.980Z,19.14
2018-06-10T04:39:30.935Z,19.21
2018-06-10T04:40:30.927Z,19.18
2018-06-10T04:41:30.986Z,19.26
2018-06-10T04:42:30.918Z,19.22
2018-06-10T04:43:30.915Z,19.21
2018-06-10T04:44:30.867Z,19.23
2018-06-10T04:45:30.899Z,19.22
2018-06-10T04:46:30.843Z,19.32
2018-06-10T04:47:30.842Z,19.32
2018-06-10T04:48:30.848Z,19.23
2018-06-10T04:49:30.829Z,19.31
2018-06-10T04:50:30.794Z,19.31
2018-06-10T04:51:30.802Z,19.28
2018-06-10T04:52:30.773Z,19.26
2018-06-10T04:53:30.770Z,19.25
2018-06-10T04:54:30.793Z,19.28
2018-06-10T04:55:30.740Z,19.28
2018-06-10T04:56:30.728Z,19.26
2018-06-10T04:57:30.726Z,19.32
2018-06-10T04:58:30.723Z,19.25
2018-06-10T04:59:30.720Z,19.22
2018-06-10T05:00:30.702Z,19.11
2018-06-10T05:01:30.690Z,19.18
2018-06-10T05:02:30.665Z,19.10
2018-06-10T05:03:30.675Z,19.10
2018-06-10T05:04:30.672Z,19.25
2018-06-10T05:05:51.653Z,19.21
2018-06-10T05:06:30.637Z,19.22
2018-06-10T05:07:30.600Z,19.28
2018-06-10T05:08:30.606Z,19.28
2018-06-10T05:09:30.598Z,19.32
2018-06-10T05:10:30.596Z,19.23
2018-06-10T05:11:30.563Z,19.16
2018-06-10T05:12:30.553Z,19.22
2018-06-10T05:13:30.541Z,19.13
2018-06-10T05:14:30.539Z,19.08
2018-06-10T05:15:30.560Z,19.21
2018-06-10T05:16:30.516Z,19.22
2018-06-10T05:17:30.503Z,19.22
2018-06-10T05:18:30.493Z,19.26
2018-06-10T05:19:30.473Z,19.39
2018-06-10T05:20:30.482Z,19.44
2018-06-10T05:21:30.489Z,19.39
2018-06-10T05:22:30.456Z,19.54
2018-06-10T05:23:30.444Z,19.58
2018-06-10T05:24:30.415Z,19.40
2018-06-10T05:25:30.429Z,19.55
2018-06-10T05:26:30.452Z,19.47
2018-06-10T05:27:30.403Z,19.50
2018-06-10T05:28:30.387Z,19.63
2018-06-10T05:29:30.380Z,19.59
2018-06-10T05:30:30.348Z,19.55
2018-06-10T05:31:30.360Z,19.55
2018-06-10T05:32:30.357Z,19.55
2018-06-10T05:33:30.342Z,19.56
2018-06-10T05:34:30.302Z,19.71
2018-06-10T05:35:30.304Z,19.71
2018-06-10T05:36:30.315Z,19.78
2018-06-10T05:37:30.311Z,19.78
2018-06-10T05:38:30.273Z,19.91
2018-06-10T05:39:30.264Z,19.86
2018-06-10T05:40:30.289Z,19.92
2018-06-10T05:41:30.264Z,19.86
2018-06-10T05:42:30.229Z,19.77
2018-06-10T05:43:30.245Z,19.83
2018-06-10T05:44:30.204Z,19.76
2018-06-10T05:45:30.225Z,19.80
2018-06-10T05:46:30.180Z,19.81
2018-06-10T05:47:30.206Z,19.78
2018-06-10T05:48:30.181Z,19.80
2018-06-10T05:49:30.150Z,19.87
2018-06-10T05:50:30.167Z,19.80
2018-06-10T05:51:30.126Z,19.73
2018-06-10T05:52:30.143Z,19.69
2018-06-10T05:53:30.142Z,19.78
2018-06-10T05:54:30.130Z,19.81
2018-06-10T05:55:30.117Z,19.86
2018-06-10T05:56:30.108Z,19.80
2018-06-10T05:57:30.071Z,19.83
2018-06-10T05:58:30.079Z,19.81
2018-06-10T05:59:30.050Z,19.88
2018-06-10T06:00:30.064Z,19.87
2018-06-10T06:01:30.020Z,19.94
2018-06-10T06:02:30.015Z,19.96
2018-06-10T06:03:30.041Z,19.95
2018-06-10T06:04:30.018Z,19.95
2018-06-10T06:05:29.998Z,19.92
2018-06-10T06:06:29.969Z,20.06
2018-06-10T06:07:29.955Z,20.05
2018-06-10T06:08:29.975Z,20.06
2018-06-10T06:09:29.940Z,20.14
2018-06-10T06:10:29.942Z,20.10
2018-06-10T06:11:29.949Z,20.17
2018-06-10T06:12:29.901Z,20.16
2018-06-10T06:13:29.888Z,20.21
2018-06-10T06:14:29.895Z,20.24
2018-06-10T06:15:29.897Z,20.26
2018-06-10T06:16:29.862Z,20.29
2018-06-10T06:17:29.856Z,20.29
2018-06-10T06:18:29.844Z,20.38
2018-06-10T06:19:29.863Z,20.39
2018-06-10T06:20:29.844Z,20.50
2018-06-10T06:21:29.841Z,20.54
2018-06-10T06:22:29.804Z,20.52
2018-06-10T06:23:29.794Z,20.64
2018-06-10T06:24:29.785Z,20.66
2018-06-10T06:25:29.765Z,20.70
2018-06-10T06:26:29.752Z,20.73
2018-06-10T06:27:29.761Z,20.74
2018-06-10T06:28:29.751Z,20.84
2018-06-10T06:29:29.734Z,20.87
2018-06-10T06:30:29.706Z,20.97
2018-06-10T06:31:29.712Z,20.98
2018-06-10T06:32:29.730Z,20.98
2018-06-10T06:33:29.687Z,21.01
2018-06-10T06:34:29.680Z,21.07
2018-06-10T06:35:29.669Z,21.10
2018-06-10T06:36:29.654Z,21.07
2018-06-10T06:37:29.672Z,21.06
2018-06-10T06:38:29.630Z,20.98
2018-06-10T06:39:29.641Z,20.84
2018-06-10T06:40:29.622Z,20.91
2018-06-10T06:41:29.615Z,20.89
2018-06-10T06:42:29.598Z,20.89
2018-06-10T06:43:29.603Z,20.82
2018-06-10T06:44:29.574Z,20.85
2018-06-10T06:45:29.579Z,20.82
2018-06-10T06:46:29.555Z,20.92
2018-06-10T06:47:29.548Z,20.89
2018-06-10T06:48:29.557Z,20.80
2018-06-10T06:49:29.527Z,20.82
2018-06-10T06:50:29.524Z,20.89
2018-06-10T06:51:29.507Z,20.77
2018-06-10T06:52:29.551Z,20.84
2018-06-10T06:53:29.495Z,20.88
2018-06-10T06:54:29.476Z,20.94
2018-06-10T06:55:29.466Z,20.94
2018-06-10T06:56:29.455Z,21.07
2018-06-10T06:57:29.448Z,21.24
2018-06-10T06:58:29.456Z,21.21
2018-06-10T06:59:29.448Z,21.19
2018-06-10T07:00:29.413Z,21.22
2018-06-10T07:01:29.410Z,21.17
2018-06-10T07:02:29.400Z,21.22
2018-06-10T07:03:29.391Z,21.24
2018-06-10T07:04:29.393Z,21.17
2018-06-10T07:05:29.381Z,21.16
2018-06-10T07:06:29.359Z,21.25
2018-06-10T07:07:29.350Z,21.43
2018-06-10T07:08:29.345Z,21.50
2018-06-10T07:09:29.331Z,21.44
2018-06-10T07:10:29.334Z,21.43
2018-06-10T07:11:29.311Z,21.47
2018-06-10T07:12:29.300Z,21.34
2018-06-10T07:13:29.293Z,21.34
2018-06-10T07:14:29.288Z,21.43
2018-06-10T07:15:29.300Z,21.40
2018-06-10T07:16:29.260Z,21.52
2018-06-10T07:17:29.260Z,21.46
2018-06-10T07:18:29.241Z,21.46
2018-06-10T07:19:29.230Z,21.52
2018-06-10T07:20:29.240Z,21.40
2018-06-10T07:21:29.216Z,21.43
2018-06-10T07:22:29.217Z,21.40
2018-06-10T07:23:29.197Z,21.46
2018-06-10T07:24:29.185Z,21.42
2018-06-10T07:25:29.180Z,21.31
2018-06-10T07:26:29.178Z,21.34
2018-06-10T07:27:29.174Z,21.38
2018-06-10T07:28:29.153Z,21.42
2018-06-10T07:29:29.139Z,21.16
2018-06-10T07:30:29.134Z,21.27
2018-06-10T07:31:29.117Z,21.25
2018-06-10T07:32:29.127Z,21.19
2018-06-10T07:33:29.111Z,21.27
2018-06-10T07:34:29.094Z,21.24
2018-06-10T07:35:29.081Z,21.31
2018-06-10T07:36:29.069Z,21.32
2018-06-10T07:37:29.076Z,21.38
2018-06-10T07:38:29.052Z,21.42
2018-06-10T07:39:29.057Z,21.44
2018-06-10T07:40:29.087Z,21.32
2018-06-10T07:41:29.018Z,21.32
2018-06-10T07:42:50.027Z,21.38
2018-06-10T07:43:29.007Z,21.46
2018-06-10T07:44:29.011Z,21.29
2018-06-10T07:45:28.986Z,21.46
2018-06-10T07:46:28.974Z,21.42
2018-06-10T07:47:28.970Z,21.38
2018-06-10T07:48:29.032Z,21.46
2018-06-10T07:49:28.949Z,21.54
2018-06-10T07:50:28.946Z,21.59
2018-06-10T07:51:28.927Z,21.72
2018-06-10T07:52:28.916Z,21.92
2018-06-10T07:53:28.906Z,21.92
2018-06-10T07:54:28.912Z,22.03
2018-06-10T07:55:28.900Z,22.02
2018-06-10T07:56:28.878Z,22.02
2018-06-10T07:57:28.869Z,22.02
2018-06-10T07:58:28.861Z,22.03
2018-06-10T07:59:28.849Z,22.03
2018-06-10T08:00:28.857Z,22.07
2018-06-10T08:01:28.828Z,22.12
2018-06-10T08:02:28.816Z,22.05
2018-06-10T08:03:28.813Z,22.05
2018-06-10T08:04:28.804Z,22.14
2018-06-10T08:05:28.799Z,22.14
2018-06-10T08:06:28.803Z,22.12
2018-06-10T08:07:28.783Z,22.15
2018-06-10T08:08:28.765Z,22.00
2018-06-10T08:09:28.757Z,22.02
2018-06-10T08:10:28.750Z,22.03
2018-06-10T08:11:28.758Z,21.88
2018-06-10T08:12:28.731Z,21.84
2018-06-10T08:13:28.718Z,21.94
2018-06-10T08:14:28.713Z,21.84
2018-06-10T08:15:28.709Z,21.92
2018-06-10T08:16:28.707Z,21.90
2018-06-10T08:17:28.685Z,21.77
2018-06-10T08:18:28.672Z,21.80
2018-06-10T08:19:28.666Z,21.79
2018-06-10T08:20:28.661Z,21.77
2018-06-10T08:21:49.670Z,21.86
2018-06-10T08:22:28.648Z,21.86
2018-06-10T08:23:28.628Z,22.00
2018-06-10T08:24:28.624Z,22.09
2018-06-10T08:25:28.609Z,22.17
2018-06-10T08:26:28.656Z,22.25
2018-06-10T08:27:28.593Z,22.30
2018-06-10T08:28:28.580Z,22.46
2018-06-10T08:29:28.575Z,22.57
2018-06-10T08:30:28.568Z,22.67
2018-06-10T08:31:28.578Z,22.73
2018-06-10T08:32:28.548Z,22.83
2018-06-10T08:33:28.537Z,22.97
2018-06-10T08:34:28.529Z,23.10
2018-06-10T08:35:28.523Z,23.15
2018-06-10T08:36:28.511Z,23.17
2018-06-10T08:37:28.568Z,23.23
2018-06-10T08:38:28.487Z,23.40
2018-06-10T08:39:28.485Z,23.38
2018-06-10T08:40:28.481Z,23.35
2018-06-10T08:41:28.474Z,23.17
2018-06-10T08:42:28.473Z,23.17
2018-06-10T08:43:28.462Z,23.17
2018-06-10T08:44:28.442Z,23.33
2018-06-10T08:45:28.456Z,23.50
2018-06-10T08:46:28.424Z,23.63
2018-06-10T08:47:28.418Z,23.79
2018-06-10T08:48:28.419Z,23.79
2018-06-10T08:49:28.409Z,23.88
2018-06-10T08:50:28.454Z,24.03
2018-06-10T08:51:28.380Z,23.91
2018-06-10T08:52:28.395Z,24.16
2018-06-10T08:53:28.369Z,24.34
2018-06-10T08:54:28.357Z,24.42
2018-06-10T08:55:28.347Z,24.73
2018-06-10T08:56:28.342Z,24.91
2018-06-10T08:57:28.336Z,25.24
2018-06-10T08:58:28.352Z,25.46
2018-06-10T08:59:28.318Z,25.45
2018-06-10T09:00:28.326Z,25.90
2018-06-10T09:01:28.304Z,25.98
2018-06-10T09:02:28.298Z,26.09
2018-06-10T09:03:28.290Z,26.20
2018-06-10T09:04:28.282Z,26.18
2018-06-10T09:05:28.272Z,25.99
2018-06-10T09:06:28.279Z,25.20
2018-06-10T09:07:28.257Z,25.50
2018-06-10T09:08:28.290Z,25.55
2018-06-10T09:09:28.248Z,25.67
2018-06-10T09:10:28.236Z,25.73
2018-06-10T09:11:28.260Z,25.54
2018-06-10T09:12:28.218Z,25.33
2018-06-10T09:13:28.216Z,25.03
2018-06-10T09:14:28.206Z,24.67
2018-06-10T09:15:28.204Z,25.32
2018-06-10T09:16:28.193Z,25.87
2018-06-10T09:17:28.199Z,26.28
2018-06-10T09:18:28.194Z,26.44
2018-06-10T09:19:28.169Z,26.10
2018-06-10T09:20:28.165Z,25.97
2018-06-10T09:21:28.154Z,25.90
2018-06-10T09:22:28.173Z,26.28
2018-06-10T09:23:28.138Z,26.15
2018-06-10T09:24:28.149Z,25.92
2018-06-10T09:25:28.133Z,25.65
2018-06-10T09:26:28.124Z,25.47
2018-06-10T09:27:28.119Z,25.42
2018-06-10T09:28:28.106Z,25.13
2018-06-10T09:29:28.117Z,24.71
2018-06-10T09:30:28.098Z,24.49
2018-06-10T09:31:28.088Z,24.31
2018-06-10T09:32:28.082Z,24.16
2018-06-10T09:33:28.092Z,24.28
2018-06-10T09:34:28.072Z,24.24
2018-06-10T09:35:28.067Z,24.32
2018-06-10T09:36:28.050Z,24.47
2018-06-10T09:37:28.056Z,24.43
2018-06-10T09:38:49.058Z,24.60
2018-06-10T09:39:28.034Z,24.49
2018-06-10T09:40:28.029Z,24.43
2018-06-10T09:41:28.016Z,24.35
2018-06-10T09:42:28.014Z,24.37
2018-06-10T09:43:28.006Z,24.32
2018-06-10T09:44:28.014Z,24.32
2018-06-10T09:45:27.989Z,24.34
2018-06-10T09:46:27.986Z,24.35
2018-06-10T09:47:27.976Z,24.45
2018-06-10T09:48:27.971Z,24.50
2018-06-10T09:49:27.979Z,24.57
2018-06-10T09:50:27.976Z,24.52
2018-06-10T09:51:27.967Z,24.46
2018-06-10T09:52:27.944Z,24.42
2018-06-10T09:53:27.938Z,24.18
2018-06-10T09:54:27.940Z,24.00
2018-06-10T09:55:27.944Z,24.02
2018-06-10T09:56:27.913Z,23.94
2018-06-10T09:57:27.906Z,24.00
2018-06-10T09:58:27.896Z,23.95
2018-06-10T09:59:27.891Z,23.84
2018-06-10T10:00:27.898Z,23.78
2018-06-10T10:01:27.871Z,23.80
2018-06-10T10:02:27.865Z,23.85
2018-06-10T10:03:27.853Z,24.05
2018-06-10T10:04:27.853Z,24.21
2018-06-10T10:05:27.839Z,24.55
2018-06-10T10:06:27.850Z,24.95
2018-06-10T10:07:27.830Z,24.99
2018-06-10T10:08:27.815Z,25.06
2018-06-10T10:09:27.808Z,24.96
2018-06-10T10:10:27.817Z,25.14
2018-06-10T10:11:27.814Z,25.33
2018-06-10T10:12:27.790Z,25.51
2018-06-10T10:13:27.778Z,25.69
2018-06-10T10:14:27.809Z,25.80
2018-06-10T10:15:27.760Z,26.29
2018-06-10T10:16:27.780Z,26.75
2018-06-10T10:17:27.752Z,27.14
2018-06-10T10:18:27.743Z,27.03
2018-06-10T10:19:27.736Z,26.70
2018-06-10T10:20:27.740Z,26.72
2018-06-10T10:21:27.730Z,26.52
2018-06-10T10:22:27.734Z,26.58
2018-06-10T10:23:27.715Z,26.36
2018-06-10T10:24:27.705Z,26.10
2018-06-10T10:25:27.703Z,26.54
2018-06-10T10:26:27.695Z,27.06
2018-06-10T10:27:27.703Z,27.87
2018-06-10T10:28:27.683Z,28.36
2018-06-10T10:29:27.680Z,28.77
2018-06-10T10:30:27.671Z,28.80
2018-06-10T10:31:27.667Z,29.02
2018-06-10T10:32:27.676Z,29.48
2018-06-10T10:33:27.657Z,29.53
2018-06-10T10:34:27.657Z,29.05
2018-06-10T10:35:27.648Z,28.93
2018-06-10T10:36:27.646Z,28.43
2018-06-10T10:37:27.668Z,28.04
2018-06-10T10:38:27.651Z,27.67
2018-06-10T10:39:27.636Z,27.47
2018-06-10T10:40:27.635Z,27.10
2018-06-10T10:41:27.628Z,26.99
2018-06-10T10:42:27.617Z,26.76
2018-06-10T10:43:27.636Z,26.51
2018-06-10T10:44:27.615Z,26.44
2018-06-10T10:45:27.610Z,26.47
2018-06-10T10:46:27.602Z,26.20
2018-06-10T10:47:27.593Z,26.01
2018-06-10T10:48:27.601Z,26.02
2018-06-10T10:49:27.603Z,26.48
2018-06-10T10:50:27.579Z,27.18
2018-06-10T10:51:27.589Z,27.60
2018-06-10T10:52:27.576Z,27.69
2018-06-10T10:53:27.571Z,27.75
2018-06-10T10:54:35.089Z,27.59
2018-06-10T10:55:27.560Z,27.37
2018-06-10T10:56:27.555Z,27.32
2018-06-10T10:57:27.550Z,27.36
2018-06-10T10:58:27.550Z,27.07
2018-06-10T10:59:27.542Z,26.73
2018-06-10T11:00:27.567Z,26.54
2018-06-10T11:01:29.196Z,26.43
2018-06-10T11:02:27.536Z,26.12
2018-06-10T11:03:27.522Z,25.94
2018-06-10T11:04:27.518Z,25.77
2018-06-10T11:05:27.517Z,25.69
2018-06-10T11:06:27.538Z,25.73
2018-06-10T11:07:27.519Z,25.97
2018-06-10T11:08:27.509Z,26.20
2018-06-10T11:09:27.496Z,26.40
2018-06-10T11:10:29.185Z,26.60
2018-06-10T11:11:27.483Z,26.84
2018-06-10T11:12:27.492Z,27.21
2018-06-10T11:13:27.470Z,27.24
2018-06-10T11:14:27.457Z,27.06
2018-06-10T11:15:27.470Z,27.12
2018-06-10T11:16:27.455Z,27.21
2018-06-10T11:17:27.459Z,27.22
2018-06-10T11:18:27.443Z,27.31
2018-06-10T11:19:27.434Z,27.97
2018-06-10T11:20:27.462Z,28.07
2018-06-10T11:21:27.440Z,28.67
2018-06-10T11:22:27.440Z,29.04
2018-06-10T11:23:27.435Z,29.37
2018-06-10T11:24:27.413Z,29.70
2018-06-10T11:25:27.419Z,30.02
2018-06-10T11:26:27.403Z,30.46
2018-06-10T11:27:27.405Z,30.53
2018-06-10T11:28:27.414Z,30.53
2018-06-10T11:29:27.390Z,30.49
2018-06-10T11:30:27.390Z,30.97
2018-06-10T11:31:27.401Z,30.29
2018-06-10T11:32:27.385Z,29.94
2018-06-10T11:33:27.396Z,30.27
2018-06-10T11:34:27.400Z,30.57
2018-06-10T11:35:27.378Z,29.79
2018-06-10T11:36:27.374Z,29.02
2018-06-10T11:37:27.390Z,28.83
2018-06-10T11:38:27.376Z,29.51
2018-06-10T11:39:27.376Z,29.78
2018-06-10T11:40:27.389Z,29.27
2018-06-10T11:41:27.368Z,29.15
2018-06-10T11:42:27.533Z,29.09
2018-06-10T11:43:27.364Z,29.02
2018-06-10T11:44:27.378Z,29.05
2018-06-10T11:45:27.362Z,29.02
2018-06-10T11:46:27.378Z,29.02
2018-06-10T11:47:27.360Z,29.06
2018-06-10T11:48:27.358Z,29.06
2018-06-10T11:49:27.366Z,29.16
2018-06-10T11:50:27.351Z,29.41
2018-06-10T11:51:27.382Z,29.95
2018-06-10T11:52:27.349Z,29.98
2018-06-10T11:53:27.348Z,30.13
2018-06-10T11:54:27.344Z,30.34
2018-06-10T11:55:27.338Z,30.86
2018-06-10T11:56:27.340Z,31.10
2018-06-10T11:57:27.355Z,31.34
2018-06-10T11:58:27.349Z,31.29
2018-06-10T11:59:27.335Z,30.86
2018-06-10T12:00:27.335Z,30.60
2018-06-10T12:01:27.333Z,30.43
2018-06-10T12:02:27.358Z,29.85
2018-06-10T12:03:27.327Z,29.64
2018-06-10T12:04:27.328Z,29.36
2018-06-10T12:05:27.325Z,29.30
2018-06-10T12:06:27.328Z,28.78
2018-06-10T12:07:27.319Z,28.59
2018-06-10T12:08:27.337Z,28.31
2018-06-10T12:09:27.317Z,28.09
2018-06-10T12:10:27.351Z,28.03
2018-06-10T12:11:27.327Z,27.82
2018-06-10T12:12:27.323Z,27.51
2018-06-10T12:13:27.323Z,27.47
2018-06-10T12:14:27.314Z,27.31
2018-06-10T12:15:27.300Z,27.46
2018-06-10T12:16:27.295Z,27.47
2018-06-10T12:17:27.293Z,27.81
2018-06-10T12:18:27.317Z,28.30
2018-06-10T12:19:27.285Z,28.73
2018-06-10T12:20:27.284Z,29.05
2018-06-10T12:21:27.280Z,29.39
2018-06-10T12:22:27.285Z,29.73
2018-06-10T12:23:27.270Z,30.20
2018-06-10T12:24:27.288Z,30.55
2018-06-10T12:25:27.284Z,30.46
2018-06-10T12:26:27.279Z,30.49
2018-06-10T12:27:27.256Z,30.62
2018-06-10T12:28:27.263Z,30.76
2018-06-10T12:29:27.257Z,30.69
2018-06-10T12:30:27.256Z,30.43
2018-06-10T12:31:27.268Z,30.13
2018-06-10T12:32:27.255Z,30.04
2018-06-10T12:33:27.261Z,30.01
2018-06-10T12:34:27.265Z,29.87
2018-06-10T12:35:27.247Z,29.52
2018-06-10T12:36:27.250Z,29.16
2018-06-10T12:37:27.259Z,28.90
2018-06-10T12:38:27.237Z,28.36
2018-06-10T12:39:27.239Z,28.03
2018-06-10T12:40:27.255Z,27.72
2018-06-10T12:41:27.244Z,27.74
2018-06-10T12:42:27.229Z,27.34
2018-06-10T12:43:27.229Z,27.37
2018-06-10T12:44:27.224Z,27.28
2018-06-10T12:45:27.220Z,27.13
2018-06-10T12:46:27.230Z,27.13
2018-06-10T12:47:27.209Z,26.87
2018-06-10T12:48:27.210Z,26.85
2018-06-10T12:49:27.236Z,26.82
2018-06-10T12:50:27.216Z,26.75
2018-06-10T12:51:27.200Z,27.02
2018-06-10T12:52:27.191Z,27.04